createdAt,value
2022-12-23T00:09:40.608Z,21.0879
2022-12-23T00:24:42.556Z,20.0609
2022-12-23T00:39:44.490Z,19.8337
2022-12-23T00:54:46.488Z,19.856
2022-12-23T01:09:48.426Z,19.3001
2022-12-23T01:24:50.336Z,21.7317
2022-12-23T01:39:52.229Z,22.4987
2022-12-23T01:54:54.172Z,23.6588
2022-12-23T02:09:56.081Z,21.1269
2022-12-23T02:24:58.173Z,17.3142
2022-12-23T02:40:00.132Z,23.314
2022-12-23T02:55:02.042Z,24.2054
2022-12-23T03:10:04.031Z,25.5153
2022-12-23T03:25:05.952Z,26.0452
2022-12-23T03:40:07.893Z,26.5169
2022-12-23T03:55:09.847Z,27.625
2022-12-23T04:10:11.802Z,27.2189
2022-12-23T04:25:13.714Z,26.0037
2022-12-23T04:40:15.659Z,27.3557
2022-12-23T04:55:17.613Z,27.0245
2022-12-23T05:10:19.581Z,23.9107
2022-12-23T05:25:21.481Z,26.8648
2022-12-23T05:40:23.869Z,27.8268
2022-12-23T05:55:29.126Z,26.2798
2022-12-23T06:10:31.179Z,23.2149
2022-12-23T06:25:33.091Z,21.9372
2022-12-23T06:40:35.065Z,21.7026
2022-12-23T06:55:36.987Z,21.5336
2022-12-23T07:10:39.011Z,19.6616
2022-12-23T07:25:40.959Z,20.5846
2022-12-23T07:40:42.886Z,19.297
2022-12-23T07:55:44.795Z,20.233
2022-12-23T08:10:48.502Z,19.375
2022-12-23T08:25:50.700Z,19.2512
2022-12-23T08:40:52.648Z,19.6381
2022-12-23T08:55:54.736Z,18.179
2022-12-23T09:10:56.709Z,19.4561
2022-12-23T09:25:58.635Z,18.2273
2022-12-23T09:41:00.703Z,19.2933
2022-12-23T09:56:02.695Z,17.9413
2022-12-23T10:11:04.831Z,19.1472
2022-12-23T10:26:06.763Z,17.6943
2022-12-23T10:41:09.564Z,19.2314
2022-12-23T10:56:11.934Z,17.5123
2022-12-23T11:11:13.903Z,18.9194
2022-12-23T11:26:15.932Z,17.4114
2022-12-23T11:41:17.824Z,18.6984
2022-12-23T11:56:19.776Z,17.7104
2022-12-23T12:11:21.903Z,18.5975
2022-12-23T12:26:23.822Z,18.0645
2022-12-23T12:41:25.767Z,18.3703
2022-12-23T12:56:27.799Z,18.2694
2022-12-23T13:11:29.927Z,18.1753
2022-12-23T13:26:31.867Z,17.9382
2022-12-23T13:41:33.875Z,18.2954
2022-12-23T13:56:35.857Z,18.6235
2022-12-23T14:11:38.721Z,17.9704
2022-12-23T14:26:40.671Z,18.3443
2022-12-23T14:41:42.588Z,17.9153
2022-12-23T14:56:44.539Z,18.7213
2022-12-23T15:11:46.491Z,18.2304
2022-12-23T15:27:03.629Z,19.0785
2022-12-23T15:42:27.002Z,18.2205
2022-12-23T15:57:28.927Z,18.7374
2022-12-23T16:12:31.011Z,17.8113
2022-12-23T16:27:32.930Z,18.8055
2022-12-23T16:42:34.867Z,18.2663
2022-12-23T16:57:36.841Z,18.7541
2022-12-23T17:12:38.942Z,19.1862
2022-12-23T17:27:40.910Z,18.8222
2022-12-23T17:42:42.878Z,19.3812
2022-12-23T17:57:44.802Z,19.7192
2022-12-23T18:12:46.795Z,18.127
2022-12-23T18:27:48.750Z,19.4691
2022-12-23T18:42:50.721Z,18.582
2022-12-23T18:57:52.679Z,19.4301
2022-12-23T19:12:54.589Z,19.8622
2022-12-23T19:27:56.529Z,20.8341
2022-12-23T19:42:58.547Z,20.194
2022-12-23T19:58:00.482Z,20.0931
2022-12-23T20:13:02.604Z,19.9402
2022-12-23T20:28:04.587Z,21.2241
2022-12-23T20:43:10.345Z,22.2548
2022-12-23T20:58:15.461Z,23.1778
2022-12-23T21:13:17.400Z,21.2018
2022-12-23T21:28:19.350Z,21.1368
2022-12-23T21:43:21.355Z,23.1518
2022-12-23T21:58:23.268Z,22.6807
2022-12-23T22:13:25.121Z,23.4477
2022-12-23T22:28:27.092Z,23.1295
2022-12-23T22:43:29.059Z,23.8154
2022-12-23T22:58:31.110Z,23.1945
2022-12-23T23:13:33.074Z,22.4535
2022-12-23T23:28:35.035Z,23.2756
2022-12-23T23:43:37.012Z,21.9595
2022-12-23T23:58:38.917Z,19.8566
